Time;durP1;ratioP1;P1;durP2;ratioP2;P2;SDS_P1;SDS_P2;PMS_P1;PMS_P2;Temp;Humidity;BMP_temperature;BMP_pressure;BME280_temperature;BME280_humidity;BME280_pressure;Samples;Min_cycle;Max_cycle;Signal;HPM_P1;HPM_P2
2021/12/01 00:01:34;;;;;;;;;;;;;;;;;;5057738;28;20525;-87
2021/12/01 00:04:01;;;;;;;;;;;;;;;;;;5057630;28;19951;-86
2021/12/01 00:06:28;;;;;;;;;;;;;;;;;;5057678;28;20077;-88
2021/12/01 00:08:55;;;;;;;;;;;;;;;;;;5057459;28;20394;-85
2021/12/01 00:11:22;;;;;;;;;;;;;;;;;;5057474;28;19949;-86
2021/12/01 00:13:49;;;;;;;;;;;;;;;;;;5057356;28;20055;-87
2021/12/01 00:16:16;;;;;;;;;;;;;;;;;;5057257;28;20465;-84
2021/12/01 00:18:43;;;;;;;;;;;;;;;;;;5057591;28;19984;-86
2021/12/01 00:21:10;;;;;;;;;;;;;;;;;;5064128;28;20011;-87
2021/12/01 00:23:37;;;;;;;;;;;;;;;;;;5067845;28;19996;-87
2021/12/01 00:26:04;;;;;;;;;;;;;;;;;;5062509;28;20098;-88
2021/12/01 00:28:31;;;;;;;;;;;;;;;;;;5057593;28;19995;-87
2021/12/01 00:30:58;;;;;;;;;;;;;;;;;;5057337;28;20493;-88
2021/12/01 00:33:25;;;;;;;;;;;;;;;;;;5057260;28;20044;-86
2021/12/01 00:35:52;;;;;;;;;;;;;;;;;;5057057;28;20033;-90
2021/12/01 00:38:19;;;;;;;;;;;;;;;;;;5057449;28;20029;-87
2021/12/01 00:40:46;;;;;;;;;;;;;;;;;;5057164;28;20059;-89
2021/12/01 00:43:17;;;;;;;;;;;;;;;;;;5057352;28;19972;-86
2021/12/01 00:45:49;;;;;;;;;;;;;;;;;;5057288;28;19978;-87
2021/12/01 00:48:16;;;;;;;;;;;;;;;;;;5057007;28;19952;-86
2021/12/01 00:50:43;;;;;;;;;;;;;;;;;;5056773;28;20047;-88
2021/12/01 00:53:11;;;;;;;;;;;;;;;;;;5056834;28;20038;-85
2021/12/01 00:55:38;;;;;;;;;;;;;;;;;;5056934;28;19948;-88
2021/12/01 00:58:05;;;;;;;;;;;;;;;;;;5056452;28;20006;-85
2021/12/01 01:00:32;;;;;;;;;;;;;;;;;;5056582;28;19962;-90
2021/12/01 01:02:59;;;;;;;;;;;;;;;;;;5055849;28;20491;-86
2021/12/01 01:05:26;;;;;;;;;;;;;;;;;;5057042;28;19990;-85
2021/12/01 01:07:53;;;;;;;;;;;;;;;;;;5056845;28;20046;-88
2021/12/01 01:10:34;;;;;;;;;;;;;;;;;;5057379;28;20037;-86
2021/12/01 01:18:30;;;;;;;;;;;;;;;;;;5056622;28;20021;-88
2021/12/01 01:20:57;;;;;;;;;;;;;;;;;;5056082;28;20058;-85
2021/12/01 01:23:24;;;;;;;;;;;;;;;;;;5056684;28;20474;-88
2021/12/01 01:25:51;;;;;;;;;;;;;;;;;;5056166;28;19990;-87
2021/12/01 01:28:18;;;;;;;;;;;;;;;;;;5055914;28;20037;-87
2021/12/01 01:30:45;;;;;;;;;;;;;;;;;;5056390;28;20031;-88
2021/12/01 01:33:12;;;;;;;;;;;;;;;;;;5056204;28;20026;-87
2021/12/01 01:35:39;;;;;;;;;;;;;;;;;;5055868;28;20035;-87
2021/12/01 01:38:06;;;;;;;;;;;;;;;;;;5056106;28;20481;-88
2021/12/01 01:40:34;;;;;;;;;;;;;;;;;;5055836;28;20018;-88
2021/12/01 01:43:01;;;;;;;;;;;;;;;;;;5056096;28;19953;-89
2021/12/01 01:45:28;;;;;;;;;;;;;;;;;;5055839;28;20389;-89
2021/12/01 01:48:00;;;;;;;;;;;;;;;;;;5055791;28;20044;-88
2021/12/01 01:50:35;;;;;;;;;;;;;;;;;;5056394;28;20005;-90
2021/12/01 01:53:01;;;;;;;;;;;;;;;;;;5056180;28;19953;-88
2021/12/01 01:55:28;;;;;;;;;;;;;;;;;;5056517;28;20046;-88
2021/12/01 01:57:55;;;;;;;;;;;;;;;;;;5055700;28;20046;-88
2021/12/01 02:00:22;;;;;;;;;;;;;;;;;;5055876;28;20010;-87
2021/12/01 02:02:50;;;;;;;;;;;;;;;;;;5056958;28;20041;-87
2021/12/01 02:05:17;;;;;;;;;;;;;;;;;;5064584;28;19976;-87
2021/12/01 02:07:44;;;;;;;;;;;;;;;;;;5061120;28;19983;-87
2021/12/01 02:10:11;;;;;;;;;;;;;;;;;;5055586;28;20042;-86
2021/12/01 02:12:38;;;;;;;;;;;;;;;;;;5055193;28;20496;-87
2021/12/01 02:15:05;;;;;;;;;;;;;;;;;;5055255;28;19983;-86
2021/12/01 02:17:32;;;;;;;;;;;;;;;;;;5055802;28;19994;-90
2021/12/01 02:19:59;;;;;;;;;;;;;;;;;;5055213;28;20059;-87
2021/12/01 02:22:26;;;;;;;;;;;;;;;;;;5055078;28;20513;-86
2021/12/01 02:24:53;;;;;;;;;;;;;;;;;;5055570;28;20354;-87
2021/12/01 02:27:20;;;;;;;;;;;;;;;;;;5055384;28;20050;-87
2021/12/01 02:29:47;;;;;;;;;;;;;;;;;;5054993;28;20042;-87
2021/12/01 02:32:14;;;;;;;;;;;;;;;;;;5056052;28;20005;-88
2021/12/01 02:34:44;;;;;;;;;;;;;;;;;;5056149;28;20369;-88
2021/12/01 02:37:11;;;;;;;;;;;;;;;;;;5055891;28;19981;-88
2021/12/01 02:39:39;;;;;;;;;;;;;;;;;;5055120;28;20049;-86
2021/12/01 02:42:07;;;;;;;;;;;;;;;;;;5054341;28;20066;-88
2021/12/01 02:44:35;;;;;;;;;;;;;;;;;;5054828;28;19953;-86
2021/12/01 02:47:02;;;;;;;;;;;;;;;;;;5054857;28;19952;-86
2021/12/01 02:49:29;;;;;;;;;;;;;;;;;;5054899;28;20054;-86
2021/12/01 02:51:56;;;;;;;;;;;;;;;;;;5054498;28;20361;-87
2021/12/01 02:54:24;;;;;;;;;;;;;;;;;;5053953;28;19965;-85
2021/12/01 02:56:50;;;;;;;;;;;;;;;;;;5054280;28;20386;-90
2021/12/01 02:59:17;;;;;;;;;;;;;;;;;;5054438;28;20036;-85
2021/12/01 03:01:45;;;;;;;;;;;;;;;;;;5054009;28;19968;-87
2021/12/01 03:04:12;;;;;;;;;;;;;;;;;;5054081;28;19948;-87
2021/12/01 03:06:39;;;;;;;;;;;;;;;;;;5054028;28;20057;-89
2021/12/01 03:09:06;;;;;;;;;;;;;;;;;;5054034;28;19995;-86
2021/12/01 03:11:33;;;;;;;;;;;;;;;;;;5054072;28;20381;-86
2021/12/01 03:14:00;;;;;;;;;;;;;;;;;;5054191;28;20015;-89
2021/12/01 03:16:27;;;;;;;;;;;;;;;;;;5054395;28;20041;-86
2021/12/01 03:18:54;;;;;;;;;;;;;;;;;;5054366;28;20060;-87
2021/12/01 03:21:21;;;;;;;;;;;;;;;;;;5054069;28;20191;-88
2021/12/01 03:23:48;;;;;;;;;;;;;;;;;;5054090;28;20473;-87
2021/12/01 03:26:15;;;;;;;;;;;;;;;;;;5053315;28;20034;-87
2021/12/01 03:28:42;;;;;;;;;;;;;;;;;;5053896;28;20056;-85
2021/12/01 03:31:09;;;;;;;;;;;;;;;;;;5053664;28;20144;-87
2021/12/01 03:33:36;;;;;;;;;;;;;;;;;;5053972;28;20024;-86
2021/12/01 03:36:03;;;;;;;;;;;;;;;;;;5053696;28;20471;-86
2021/12/01 03:38:30;;;;;;;;;;;;;;;;;;5053738;28;20097;-90
2021/12/01 03:40:57;;;;;;;;;;;;;;;;;;5053516;28;20061;-87
2021/12/01 03:43:24;;;;;;;;;;;;;;;;;;5053580;28;19997;-87
2021/12/01 03:45:51;;;;;;;;;;;;;;;;;;5056329;28;20005;-86
2021/12/01 03:48:18;;;;;;;;;;;;;;;;;;5055237;28;19948;-87
2021/12/01 03:50:49;;;;;;;;;;;;;;;;;;5056232;28;20289;-84
2021/12/01 03:53:16;;;;;;;;;;;;;;;;;;5053756;28;19992;-85
2021/12/01 03:55:43;;;;;;;;;;;;;;;;;;5053307;28;19949;-87
2021/12/01 03:58:10;;;;;;;;;;;;;;;;;;5053554;28;20036;-86
2021/12/01 04:00:37;;;;;;;;;;;;;;;;;;5053713;28;20043;-87
2021/12/01 04:03:04;;;;;;;;;;;;;;;;;;5053453;28;20061;-87
2021/12/01 04:05:31;;;;;;;;;;;;;;;;;;5053486;28;19988;-86
2021/12/01 04:07:59;;;;;;;;;;;;;;;;;;5053388;28;20427;-86
2021/12/01 04:10:26;;;;;;;;;;;;;;;;;;5053431;28;19982;-87
2021/12/01 04:12:53;;;;;;;;;;;;;;;;;;5053650;28;19986;-85
2021/12/01 04:15:20;;;;;;;;;;;;;;;;;;5053591;28;20036;-86
2021/12/01 04:17:47;;;;;;;;;;;;;;;;;;5053947;28;20479;-87
2021/12/01 04:20:15;;;;;;;;;;;;;;;;;;5053387;28;20152;-85
2021/12/01 04:22:42;;;;;;;;;;;;;;;;;;5053195;28;20020;-86
2021/12/01 04:25:10;;;;;;;;;;;;;;;;;;5053350;28;20036;-88
2021/12/01 04:27:37;;;;;;;;;;;;;;;;;;5053530;28;19950;-87
2021/12/01 04:30:04;;;;;;;;;;;;;;;;;;5053499;28;19948;-88
2021/12/01 04:32:31;;;;;;;;;;;;;;;;;;5053578;28;19944;-89
2021/12/01 04:34:58;;;;;;;;;;;;;;;;;;5053718;28;20421;-87
2021/12/01 04:37:25;;;;;;;;;;;;;;;;;;5054424;28;19995;-88
2021/12/01 04:39:52;;;;;;;;;;;;;;;;;;5057364;28;19947;-87
2021/12/01 04:42:19;;;;;;;;;;;;;;;;;;5056887;28;20060;-87
2021/12/01 04:44:46;;;;;;;;;;;;;;;;;;5057205;28;19946;-88
2021/12/01 04:47:15;;;;;;;;;;;;;;;;;;5056775;28;20446;-87
2021/12/01 04:49:42;;;;;;;;;;;;;;;;;;5056623;28;19945;-89
2021/12/01 04:52:09;;;;;;;;;;;;;;;;;;5056648;28;20380;-88
2021/12/01 04:54:36;;;;;;;;;;;;;;;;;;5056534;28;20038;-89
2021/12/01 04:57:02;;;;;;;;;;;;;;;;;;5057084;28;20050;-88
2021/12/01 04:59:29;;;;;;;;;;;;;;;;;;5056490;28;20030;-88
2021/12/01 05:01:56;;;;;;;;;;;;;;;;;;5056531;28;20382;-88
2021/12/01 05:04:24;;;;;;;;;;;;;;;;;;5056790;28;20012;-88
2021/12/01 05:06:51;;;;;;;;;;;;;;;;;;5056583;28;19970;-87
2021/12/01 05:09:18;;;;;;;;;;;;;;;;;;5057371;28;20008;-87
2021/12/01 05:11:45;;;;;;;;;;;;;;;;;;5056351;28;19987;-89
2021/12/01 05:14:12;;;;;;;;;;;;;;;;;;5056237;28;20291;-90
2021/12/01 05:16:39;;;;;;;;;;;;;;;;;;5056315;28;20046;-87
2021/12/01 05:19:06;;;;;;;;;;;;;;;;;;5056114;28;19949;-87
2021/12/01 05:21:33;;;;;;;;;;;;;;;;;;5055729;28;20057;-87
2021/12/01 05:24:00;;;;;;;;;;;;;;;;;;5056165;28;20045;-88
2021/12/01 05:26:27;;;;;;;;;;;;;;;;;;5056535;28;19947;-87
2021/12/01 05:28:54;;;;;;;;;;;;;;;;;;5061694;28;19951;-89
2021/12/01 05:31:21;;;;;;;;;;;;;;;;;;5060705;28;20000;-86
2021/12/01 05:33:48;;;;;;;;;;;;;;;;;;5058891;28;20053;-87
2021/12/01 05:36:15;;;;;;;;;;;;;;;;;;5055774;28;19944;-87
2021/12/01 05:38:43;;;;;;;;;;;;;;;;;;5055916;28;20430;-87
2021/12/01 05:41:10;;;;;;;;;;;;;;;;;;5055841;28;19946;-86
2021/12/01 05:43:37;;;;;;;;;;;;;;;;;;5055996;28;20033;-87
2021/12/01 05:46:04;;;;;;;;;;;;;;;;;;5055907;28;20049;-86
2021/12/01 05:48:31;;;;;;;;;;;;;;;;;;5055256;28;20353;-85
2021/12/01 05:50:58;;;;;;;;;;;;;;;;;;5056716;28;19989;-87
2021/12/01 05:53:25;;;;;;;;;;;;;;;;;;5055824;28;19955;-87
2021/12/01 05:55:52;;;;;;;;;;;;;;;;;;5056142;28;20039;-89
2021/12/01 05:58:19;;;;;;;;;;;;;;;;;;5055845;28;20313;-88
2021/12/01 06:00:46;;;;;;;;;;;;;;;;;;5055808;28;20032;-88
2021/12/01 06:03:13;;;;;;;;;;;;;;;;;;5055730;28;20062;-89
2021/12/01 06:05:40;;;;;;;;;;;;;;;;;;5055759;28;20011;-87
2021/12/01 06:08:07;;;;;;;;;;;;;;;;;;5055245;28;19959;-87
2021/12/01 06:10:34;;;;;;;;;;;;;;;;;;5055032;28;20053;-87
2021/12/01 06:13:01;;;;;;;;;;;;;;;;;;5055104;28;19960;-88
2021/12/01 06:15:30;;;;;;;;;;;;;;;;;;5055743;28;20060;-88
2021/12/01 06:17:58;;;;;;;;;;;;;;;;;;5055410;28;20378;-87
2021/12/01 06:20:25;;;;;;;;;;;;;;;;;;5055011;28;19961;-87
2021/12/01 06:22:52;;;;;;;;;;;;;;;;;;5054314;28;20046;-88
2021/12/01 06:25:19;;;;;;;;;;;;;;;;;;5054917;28;20007;-88
2021/12/01 06:27:46;;;;;;;;;;;;;;;;;;5054822;28;20004;-87
2021/12/01 06:30:13;;;;;;;;;;;;;;;;;;5054718;28;20019;-87
2021/12/01 06:32:40;;;;;;;;;;;;;;;;;;5054160;28;20035;-85
2021/12/01 06:35:07;;;;;;;;;;;;;;;;;;5054741;28;19959;-87
2021/12/01 06:37:34;;;;;;;;;;;;;;;;;;5054154;28;20043;-86
2021/12/01 06:40:01;;;;;;;;;;;;;;;;;;5054110;28;20040;-88
2021/12/01 06:42:28;;;;;;;;;;;;;;;;;;5054093;28;20018;-87
2021/12/01 06:44:55;;;;;;;;;;;;;;;;;;5054096;28;20042;-88
2021/12/01 06:47:22;;;;;;;;;;;;;;;;;;5054105;28;20459;-87
2021/12/01 06:49:49;;;;;;;;;;;;;;;;;;5051432;28;19998;-87
2021/12/01 06:52:16;;;;;;;;;;;;;;;;;;5056136;28;20001;-87
2021/12/01 06:54:43;;;;;;;;;;;;;;;;;;5055955;28;20032;-86
2021/12/01 06:57:10;;;;;;;;;;;;;;;;;;5054197;28;20058;-89
2021/12/01 06:59:37;;;;;;;;;;;;;;;;;;5054679;28;20451;-85
2021/12/01 07:02:04;;;;;;;;;;;;;;;;;;5054006;28;20107;-87
2021/12/01 07:04:31;;;;;;;;;;;;;;;;;;5054244;28;20041;-88
2021/12/01 07:06:58;;;;;;;;;;;;;;;;;;5053885;28;19981;-85
2021/12/01 07:09:25;;;;;;;;;;;;;;;;;;5054607;28;19957;-87
2021/12/01 07:11:52;;;;;;;;;;;;;;;;;;5056254;28;19995;-87
2021/12/01 07:14:19;;;;;;;;;;;;;;;;;;5056104;28;20386;-88
2021/12/01 07:16:46;;;;;;;;;;;;;;;;;;5055241;28;20045;-89
2021/12/01 07:19:13;;;;;;;;;;;;;;;;;;5054459;28;20006;-87
2021/12/01 07:21:40;;;;;;;;;;;;;;;;;;5054078;28;20044;-89
2021/12/01 07:24:07;;;;;;;;;;;;;;;;;;5054217;28;20041;-87
2021/12/01 07:26:34;;;;;;;;;;;;;;;;;;5053825;28;20520;-87
2021/12/01 07:29:01;;;;;;;;;;;;;;;;;;5054050;28;20121;-87
2021/12/01 07:31:28;;;;;;;;;;;;;;;;;;5054087;28;20046;-85
2021/12/01 07:33:55;;;;;;;;;;;;;;;;;;5053991;28;20049;-86
2021/12/01 07:36:22;;;;;;;;;;;;;;;;;;5053752;28;20054;-89
2021/12/01 07:38:50;;;;;;;;;;;;;;;;;;5050784;28;20049;-86
2021/12/01 07:41:17;;;;;;;;;;;;;;;;;;5053016;28;19967;-87
2021/12/01 07:43:44;;;;;;;;;;;;;;;;;;5053417;28;19980;-88
2021/12/01 07:46:11;;;;;;;;;;;;;;;;;;5053631;28;20629;-86
2021/12/01 07:48:38;;;;;;;;;;;;;;;;;;5053759;28;19955;-85
2021/12/01 07:51:05;;;;;;;;;;;;;;;;;;5053405;28;20052;-85
2021/12/01 07:53:32;;;;;;;;;;;;;;;;;;5053688;28;20445;-88
2021/12/01 07:56:01;;;;;;;;;;;;;;;;;;5054806;28;20370;-89
2021/12/01 07:58:28;;;;;;;;;;;;;;;;;;5055473;28;19962;-88
2021/12/01 08:00:55;;;;;;;;;;;;;;;;;;5053372;28;20051;-88
2021/12/01 08:03:22;;;;;;;;;;;;;;;;;;5052842;28;20026;-90
2021/12/01 08:05:49;;;;;;;;;;;;;;;;;;5053530;28;19989;-92
2021/12/01 08:08:16;;;;;;;;;;;;;;;;;;5053064;28;19967;-88
2021/12/01 08:10:45;;;;;;;;;;;;;;;;;;5053667;28;20045;-87
2021/12/01 08:13:12;;;;;;;;;;;;;;;;;;5056044;28;19956;-90
2021/12/01 08:15:39;;;;;;;;;;;;;;;;;;5058615;28;20042;-86
2021/12/01 08:18:06;;;;;;;;;;;;;;;;;;5057524;28;20072;-90
2021/12/01 08:20:33;;;;;;;;;;;;;;;;;;5057246;28;19950;-88
2021/12/01 08:23:00;;;;;;;;;;;;;;;;;;5057381;28;19972;-88
2021/12/01 08:25:27;;;;;;;;;;;;;;;;;;5057678;28;20047;-88
2021/12/01 08:27:54;;;;;;;;;;;;;;;;;;5057627;28;20013;-88
2021/12/01 08:30:21;;;;;;;;;;;;;;;;;;5057486;28;20045;-89
2021/12/01 08:32:48;;;;;;;;;;;;;;;;;;5057685;28;20440;-87
2021/12/01 08:35:15;;;;;;;;;;;;;;;;;;5057901;28;20008;-87
2021/12/01 08:37:42;;;;;;;;;;;;;;;;;;5057021;28;19958;-89
2021/12/01 08:40:09;;;;;;;;;;;;;;;;;;5056999;28;19966;-86
2021/12/01 08:42:36;;;;;;;;;;;;;;;;;;5057631;28;20061;-88
2021/12/01 08:45:03;;;;;;;;;;;;;;;;;;5056907;28;20039;-88
2021/12/01 08:47:31;;;;;;;;;;;;;;;;;;5056749;28;20046;-86
2021/12/01 08:49:58;;;;;;;;;;;;;;;;;;5057028;28;19962;-89
2021/12/01 08:52:25;;;;;;;;;;;;;;;;;;5056330;28;20036;-85
2021/12/01 08:54:52;;;;;;;;;;;;;;;;;;5059251;28;19979;-88
2021/12/01 08:57:19;;;;;;;;;;;;;;;;;;5059747;28;20451;-87
2021/12/01 08:59:48;;;;;;;;;;;;;;;;;;5060533;28;20013;-88
2021/12/01 09:02:15;;;;;;;;;;;;;;;;;;5058849;28;19961;-88
2021/12/01 09:04:42;;;;;;;;;;;;;;;;;;5056262;28;19997;-90
2021/12/01 09:07:09;;;;;;;;;;;;;;;;;;5057090;28;20669;-86
2021/12/01 09:09:35;;;;;;;;;;;;;;;;;;5056045;28;20383;-87
2021/12/01 09:12:03;;;;;;;;;;;;;;;;;;5056282;28;20032;-87
2021/12/01 09:14:30;;;;;;;;;;;;;;;;;;5056524;28;19989;-88
2021/12/01 09:16:56;;;;;;;;;;;;;;;;;;5056295;28;19955;-88
2021/12/01 09:19:23;;;;;;;;;;;;;;;;;;5056175;28;20006;-88
2021/12/01 09:21:50;;;;;;;;;;;;;;;;;;5056734;28;20549;-88
2021/12/01 09:24:18;;;;;;;;;;;;;;;;;;5055273;28;20061;-88
2021/12/01 09:26:45;;;;;;;;;;;;;;;;;;5056074;28;19981;-88
2021/12/01 09:29:11;;;;;;;;;;;;;;;;;;5055447;28;20039;-88
2021/12/01 09:31:38;;;;;;;;;;;;;;;;;;5056068;28;20075;-87
2021/12/01 09:34:05;;;;;;;;;;;;;;;;;;5055870;28;20054;-90
2021/12/01 09:36:32;;;;;;;;;;;;;;;;;;5055581;28;20465;-86
2021/12/01 09:38:59;;;;;;;;;;;;;;;;;;5055748;28;19993;-85
2021/12/01 09:41:26;;;;;;;;;;;;;;;;;;5056516;28;19993;-83
2021/12/01 09:43:53;;;;;;;;;;;;;;;;;;5055646;28;20017;-88
2021/12/01 09:46:20;;;;;;;;;;;;;;;;;;5055584;28;20051;-88
2021/12/01 09:48:47;;;;;;;;;;;;;;;;;;5055324;28;20463;-87
2021/12/01 09:51:14;;;;;;;;;;;;;;;;;;5055655;28;20042;-89
2021/12/01 09:53:42;;;;;;;;;;;;;;;;;;5055581;28;20000;-89
2021/12/01 09:56:09;;;;;;;;;;;;;;;;;;5055680;28;20011;-87
2021/12/01 09:58:36;;;;;;;;;;;;;;;;;;5054810;28;20049;-87
2021/12/01 10:01:03;;;;;;;;;;;;;;;;;;5055114;28;20380;-87
2021/12/01 10:03:30;;;;;;;;;;;;;;;;;;5055432;28;19965;-85
2021/12/01 10:06:03;;;;;;;;;;;;;;;;;;5054450;28;19947;-87
2021/12/01 10:08:30;;;;;;;;;;;;;;;;;;5052424;28;19945;-86
2021/12/01 10:10:56;;;;;;;;;;;;;;;;;;5054465;28;19985;-87
2021/12/01 10:13:23;;;;;;;;;;;;;;;;;;5055259;28;20709;-90
2021/12/01 10:15:50;;;;;;;;;;;;;;;;;;5055123;28;20053;-86
2021/12/01 10:18:17;;;;;;;;;;;;;;;;;;5054826;28;20037;-88
2021/12/01 10:20:44;;;;;;;;;;;;;;;;;;5054888;28;20008;-88
2021/12/01 10:23:11;;;;;;;;;;;;;;;;;;5055293;28;20012;-89
2021/12/01 10:25:38;;;;;;;;;;;;;;;;;;5055385;28;20327;-87
2021/12/01 10:28:05;;;;;;;;;;;;;;;;;;5056477;28;19991;-86
2021/12/01 10:30:32;;;;;;;;;;;;;;;;;;5055020;28;20038;-87
2021/12/01 10:32:59;;;;;;;;;;;;;;;;;;5054631;28;19979;-86
2021/12/01 10:35:26;;;;;;;;;;;;;;;;;;5054596;28;20053;-88
2021/12/01 10:37:53;;;;;;;;;;;;;;;;;;5055930;28;20372;-88
2021/12/01 10:40:21;;;;;;;;;;;;;;;;;;5055226;28;20038;-89
2021/12/01 10:42:48;;;;;;;;;;;;;;;;;;5057975;28;19942;-88
2021/12/01 10:45:15;;;;;;;;;;;;;;;;;;5055636;28;20380;-89
2021/12/01 10:47:42;;;;;;;;;;;;;;;;;;5055597;28;20037;-89
2021/12/01 10:50:09;;;;;;;;;;;;;;;;;;5054645;28;19986;-88
2021/12/01 10:52:36;;;;;;;;;;;;;;;;;;5055861;28;20015;-89
2021/12/01 10:55:03;;;;;;;;;;;;;;;;;;5054412;28;20054;-85
2021/12/01 10:57:30;;;;;;;;;;;;;;;;;;5054179;28;20058;-87
2021/12/01 10:59:57;;;;;;;;;;;;;;;;;;5055168;28;19989;-87
2021/12/01 11:02:24;;;;;;;;;;;;;;;;;;5054187;28;20044;-87
2021/12/01 11:04:51;;;;;;;;;;;;;;;;;;5056044;28;20014;-87
2021/12/01 11:07:18;;;;;;;;;;;;;;;;;;5054542;28;20017;-86
2021/12/01 11:09:45;;;;;;;;;;;;;;;;;;5054140;28;20057;-84
2021/12/01 11:12:12;;;;;;;;;;;;;;;;;;5054352;28;20487;-91
2021/12/01 11:14:39;;;;;;;;;;;;;;;;;;5054562;28;20400;-86
2021/12/01 11:17:06;;;;;;;;;;;;;;;;;;5053826;28;20082;-85
2021/12/01 11:19:33;;;;;;;;;;;;;;;;;;5054099;28;20488;-89
2021/12/01 11:22:01;;;;;;;;;;;;;;;;;;5054255;28;20432;-83
2021/12/01 11:24:28;;;;;;;;;;;;;;;;;;5053733;28;19977;-86
2021/12/01 11:26:54;;;;;;;;;;;;;;;;;;5054007;28;20006;-85
2021/12/01 11:29:22;;;;;;;;;;;;;;;;;;5053580;28;20442;-85
2021/12/01 11:31:50;;;;;;;;;;;;;;;;;;5053348;28;19950;-84
2021/12/01 11:34:17;;;;;;;;;;;;;;;;;;5053317;28;19989;-84
2021/12/01 11:36:44;;;;;;;;;;;;;;;;;;5053328;28;19989;-85
2021/12/01 11:39:11;;;;;;;;;;;;;;;;;;5053417;28;20478;-89
2021/12/01 11:41:41;;;;;;;;;;;;;;;;;;5053430;28;19955;-87
2021/12/01 11:44:08;;;;;;;;;;;;;;;;;;5053398;28;19966;-86
2021/12/01 11:46:35;;;;;;;;;;;;;;;;;;5053164;28;20060;-85
2021/12/01 11:49:02;;;;;;;;;;;;;;;;;;5053073;28;19956;-87
2021/12/01 11:51:29;;;;;;;;;;;;;;;;;;5052955;28;20030;-89
2021/12/01 11:53:56;;;;;;;;;;;;;;;;;;5053652;28;20204;-85
2021/12/01 11:56:26;;;;;;;;;;;;;;;;;;5053344;28;20097;-85
2021/12/01 11:58:53;;;;;;;;;;;;;;;;;;5053218;28;19961;-85
2021/12/01 12:01:20;;;;;;;;;;;;;;;;;;5052428;28;20052;-86
2021/12/01 12:03:47;;;;;;;;;;;;;;;;;;5053266;28;20068;-86
2021/12/01 12:06:14;;;;;;;;;;;;;;;;;;5052922;28;20075;-86
2021/12/01 12:08:41;;;;;;;;;;;;;;;;;;5053122;28;20039;-84
2021/12/01 12:11:07;;;;;;;;;;;;;;;;;;5053025;28;20466;-85
2021/12/01 12:13:34;;;;;;;;;;;;;;;;;;5053273;28;20385;-85
2021/12/01 12:16:02;;;;;;;;;;;;;;;;;;5052478;28;20031;-85
2021/12/01 12:18:29;;;;;;;;;;;;;;;;;;5052580;28;19946;-85
2021/12/01 12:20:56;;;;;;;;;;;;;;;;;;5052826;28;20041;-85
2021/12/01 12:23:22;;;;;;;;;;;;;;;;;;5053425;28;20074;-84
2021/12/01 12:25:53;;;;;;;;;;;;;;;;;;5053313;28;20058;-85
2021/12/01 12:28:20;;;;;;;;;;;;;;;;;;5053673;28;19963;-86
2021/12/01 12:30:47;;;;;;;;;;;;;;;;;;5052944;28;20075;-84
2021/12/01 12:33:14;;;;;;;;;;;;;;;;;;5052959;28;20483;-86
2021/12/01 12:35:41;;;;;;;;;;;;;;;;;;5053424;28;20481;-88
2021/12/01 12:38:08;;;;;;;;;;;;;;;;;;5053395;28;19995;-89
2021/12/01 12:40:35;;;;;;;;;;;;;;;;;;5053259;28;19956;-88
2021/12/01 12:43:02;;;;;;;;;;;;;;;;;;5053060;28;20046;-88
2021/12/01 12:45:29;;;;;;;;;;;;;;;;;;5053774;28;20059;-87
2021/12/01 12:47:56;;;;;;;;;;;;;;;;;;5053318;28;19956;-85
2021/12/01 12:50:24;;;;;;;;;;;;;;;;;;5052987;28;20387;-86
2021/12/01 12:52:52;;;;;;;;;;;;;;;;;;5053287;28;20324;-91
2021/12/01 12:55:20;;;;;;;;;;;;;;;;;;5052273;28;19957;-88
2021/12/01 12:57:47;;;;;;;;;;;;;;;;;;5053257;28;20051;-86
2021/12/01 13:00:14;;;;;;;;;;;;;;;;;;5055537;28;20411;-86
2021/12/01 13:02:41;;;;;;;;;;;;;;;;;;5056459;28;20394;-87
2021/12/01 13:05:08;;;;;;;;;;;;;;;;;;5056850;28;20395;-91
2021/12/01 13:07:35;;;;;;;;;;;;;;;;;;5056544;28;20405;-85
2021/12/01 13:10:02;;;;;;;;;;;;;;;;;;5056063;28;20324;-88
2021/12/01 13:12:28;;;;;;;;;;;;;;;;;;5056322;28;20057;-89
2021/12/01 13:14:55;;;;;;;;;;;;;;;;;;5056298;28;20040;-86
2021/12/01 13:17:22;;;;;;;;;;;;;;;;;;5056511;28;20058;-90
2021/12/01 13:19:49;;;;;;;;;;;;;;;;;;5055665;28;20022;-87
2021/12/01 13:22:16;;;;;;;;;;;;;;;;;;5055775;28;20005;-86
2021/12/01 13:24:43;;;;;;;;;;;;;;;;;;5055845;28;20068;-85
2021/12/01 13:27:10;;;;;;;;;;;;;;;;;;5056303;28;20044;-91
2021/12/01 13:29:37;;;;;;;;;;;;;;;;;;5056143;28;20048;-85
2021/12/01 13:32:04;;;;;;;;;;;;;;;;;;5055816;28;20045;-87
2021/12/01 13:34:34;;;;;;;;;;;;;;;;;;5055696;28;20041;-87
2021/12/01 13:37:02;;;;;;;;;;;;;;;;;;5055622;28;19997;-86
2021/12/01 13:39:29;;;;;;;;;;;;;;;;;;5055168;28;19951;-85
2021/12/01 13:41:56;;;;;;;;;;;;;;;;;;5055761;28;20031;-88
2021/12/01 13:44:23;;;;;;;;;;;;;;;;;;5055447;28;20041;-88
2021/12/01 13:46:50;;;;;;;;;;;;;;;;;;5056046;28;19990;-84
2021/12/01 13:49:17;;;;;;;;;;;;;;;;;;5055182;28;20048;-84
2021/12/01 13:51:44;;;;;;;;;;;;;;;;;;5055368;28;19955;-83
2021/12/01 13:54:11;;;;;;;;;;;;;;;;;;5054949;28;20008;-83
2021/12/01 13:56:38;;;;;;;;;;;;;;;;;;5055264;28;20058;-84
2021/12/01 13:59:05;;;;;;;;;;;;;;;;;;5055394;28;20019;-85
2021/12/01 14:01:32;;;;;;;;;;;;;;;;;;5055415;28;20031;-85
2021/12/01 14:03:59;;;;;;;;;;;;;;;;;;5055803;28;20074;-85
2021/12/01 14:06:26;;;;;;;;;;;;;;;;;;5055027;28;20019;-83
2021/12/01 14:08:53;;;;;;;;;;;;;;;;;;5055749;28;20030;-86
2021/12/01 14:11:22;;;;;;;;;;;;;;;;;;5054716;28;20055;-85
2021/12/01 14:13:50;;;;;;;;;;;;;;;;;;5054630;28;20339;-83
2021/12/01 14:16:17;;;;;;;;;;;;;;;;;;5054695;28;19949;-83
2021/12/01 14:18:44;;;;;;;;;;;;;;;;;;5053819;28;20462;-85
2021/12/01 14:21:11;;;;;;;;;;;;;;;;;;5054870;28;20378;-83
2021/12/01 14:23:38;;;;;;;;;;;;;;;;;;5054757;28;20062;-83
2021/12/01 14:26:05;;;;;;;;;;;;;;;;;;5055157;28;20047;-84
2021/12/01 14:28:32;;;;;;;;;;;;;;;;;;5054986;28;20040;-84
2021/12/01 14:31:00;;;;;;;;;;;;;;;;;;5054433;28;20314;-84
2021/12/01 14:33:27;;;;;;;;;;;;;;;;;;5054414;28;19966;-87
2021/12/01 14:35:54;;;;;;;;;;;;;;;;;;5054506;28;20055;-82
2021/12/01 14:38:21;;;;;;;;;;;;;;;;;;5054109;28;20447;-83
2021/12/01 14:40:49;;;;;;;;;;;;;;;;;;5053991;28;20050;-85
2021/12/01 14:43:16;;;;;;;;;;;;;;;;;;5054283;28;19955;-83
2021/12/01 14:45:43;;;;;;;;;;;;;;;;;;5054378;28;20065;-83
2021/12/01 14:48:10;;;;;;;;;;;;;;;;;;5054326;28;19992;-83
2021/12/01 14:50:37;;;;;;;;;;;;;;;;;;5054225;28;20003;-82
2021/12/01 14:53:04;;;;;;;;;;;;;;;;;;5053917;28;20020;-84
2021/12/01 14:55:31;;;;;;;;;;;;;;;;;;5052953;28;20043;-85
2021/12/01 14:57:58;;;;;;;;;;;;;;;;;;5053208;28;20035;-86
2021/12/01 15:00:25;;;;;;;;;;;;;;;;;;5053801;28;19958;-85
2021/12/01 15:02:52;;;;;;;;;;;;;;;;;;5054329;28;20388;-86
2021/12/01 15:05:19;;;;;;;;;;;;;;;;;;5053986;28;20063;-85
2021/12/01 15:07:46;;;;;;;;;;;;;;;;;;5053917;28;20047;-87
2021/12/01 15:10:13;;;;;;;;;;;;;;;;;;5053787;28;20034;-85
2021/12/01 15:12:40;;;;;;;;;;;;;;;;;;5053862;28;20013;-85
2021/12/01 15:15:07;;;;;;;;;;;;;;;;;;5053534;28;20053;-84
2021/12/01 15:17:34;;;;;;;;;;;;;;;;;;5054615;28;20046;-86
2021/12/01 15:20:01;;;;;;;;;;;;;;;;;;5053860;28;20052;-87
2021/12/01 15:22:28;;;;;;;;;;;;;;;;;;5053164;28;20036;-86
2021/12/01 15:24:55;;;;;;;;;;;;;;;;;;5053341;28;20047;-86
2021/12/01 15:27:22;;;;;;;;;;;;;;;;;;5053139;28;19956;-86
2021/12/01 15:29:48;;;;;;;;;;;;;;;;;;5052994;28;20460;-88
2021/12/01 15:32:15;;;;;;;;;;;;;;;;;;5054081;28;20059;-86
2021/12/01 15:34:42;;;;;;;;;;;;;;;;;;5053512;28;20036;-84
2021/12/01 15:37:09;;;;;;;;;;;;;;;;;;5053933;28;20003;-85
2021/12/01 15:39:36;;;;;;;;;;;;;;;;;;5053567;28;20065;-88
2021/12/01 15:42:03;;;;;;;;;;;;;;;;;;5053426;28;20051;-85
2021/12/01 15:44:30;;;;;;;;;;;;;;;;;;5053439;28;20021;-86
2021/12/01 15:46:57;;;;;;;;;;;;;;;;;;5054923;28;20396;-85
2021/12/01 15:49:24;;;;;;;;;;;;;;;;;;5056203;28;20040;-86
2021/12/01 15:51:51;;;;;;;;;;;;;;;;;;5054018;28;20003;-86
2021/12/01 15:54:20;;;;;;;;;;;;;;;;;;5054026;28;20006;-85
2021/12/01 15:56:47;;;;;;;;;;;;;;;;;;5053546;28;20442;-86
2021/12/01 15:59:14;;;;;;;;;;;;;;;;;;5054474;28;20396;-89
2021/12/01 16:01:41;;;;;;;;;;;;;;;;;;5053191;28;19993;-85
2021/12/01 16:04:08;;;;;;;;;;;;;;;;;;5052924;28;20031;-87
2021/12/01 16:06:35;;;;;;;;;;;;;;;;;;5053220;28;20135;-85
2021/12/01 16:09:03;;;;;;;;;;;;;;;;;;5053419;28;19999;-86
2021/12/01 16:11:30;;;;;;;;;;;;;;;;;;5053131;28;19960;-86
2021/12/01 16:13:57;;;;;;;;;;;;;;;;;;5053622;28;20045;-85
2021/12/01 16:16:24;;;;;;;;;;;;;;;;;;5053011;28;20005;-89
2021/12/01 16:18:51;;;;;;;;;;;;;;;;;;5053621;28;20449;-88
2021/12/01 16:21:18;;;;;;;;;;;;;;;;;;5053039;28;20090;-86
2021/12/01 16:23:46;;;;;;;;;;;;;;;;;;5053144;28;20007;-85
2021/12/01 16:26:16;;;;;;;;;;;;;;;;;;5053060;28;19974;-87
2021/12/01 16:28:45;;;;;;;;;;;;;;;;;;5053329;28;19960;-85
2021/12/01 16:31:12;;;;;;;;;;;;;;;;;;5053545;28;19960;-85
2021/12/01 16:33:39;;;;;;;;;;;;;;;;;;5054596;28;20049;-85
2021/12/01 16:36:06;;;;;;;;;;;;;;;;;;5056904;28;19958;-89
2021/12/01 16:38:35;;;;;;;;;;;;;;;;;;5057231;28;19952;-87
2021/12/01 16:41:02;;;;;;;;;;;;;;;;;;5054459;28;19947;-86
2021/12/01 16:43:29;;;;;;;;;;;;;;;;;;5056419;28;20045;-86
2021/12/01 16:45:56;;;;;;;;;;;;;;;;;;5056531;28;20016;-85
2021/12/01 16:48:23;;;;;;;;;;;;;;;;;;5056563;28;20501;-86
2021/12/01 16:50:51;;;;;;;;;;;;;;;;;;5056272;28;19956;-85